createdAt,value
2023-05-24T00:00:53.181Z,3.20
2023-05-24T00:03:21.655Z,3.00
2023-05-24T00:05:49.787Z,3.03
2023-05-24T00:08:17.702Z,3.00
2023-05-24T00:10:45.599Z,3.47
2023-05-24T00:13:15.201Z,2.83
2023-05-24T00:15:44.626Z,3.00
2023-05-24T00:18:12.526Z,2.73
2023-05-24T00:20:40.807Z,2.30
2023-05-24T00:23:09.507Z,3.20
2023-05-24T00:25:37.886Z,3.27
2023-05-24T00:28:05.817Z,3.00
2023-05-24T00:30:33.748Z,2.77
2023-05-24T00:33:03.055Z,2.57
2023-05-24T00:35:30.990Z,3.03
2023-05-24T00:37:58.846Z,2.70
2023-05-24T00:40:26.771Z,2.87
2023-05-24T00:42:54.726Z,2.90
2023-05-24T00:45:22.666Z,3.10
2023-05-24T00:47:50.689Z,2.30
2023-05-24T00:50:21.091Z,3.00
2023-05-24T00:52:52.940Z,2.80
2023-05-24T00:55:21.448Z,3.00
2023-05-24T00:57:49.471Z,2.83
2023-05-24T01:00:17.896Z,3.27
2023-05-24T01:02:48.344Z,2.83
2023-05-24T01:05:17.323Z,2.47
2023-05-24T01:08:00.746Z,2.83
2023-05-24T01:10:35.926Z,2.27
2023-05-24T01:13:27.289Z,3.30
2023-05-24T01:16:01.061Z,2.80
2023-05-24T01:18:34.136Z,2.93
2023-05-24T01:21:14.012Z,3.10
2023-05-24T01:23:50.469Z,2.50
2023-05-24T01:26:32.072Z,3.23
2023-05-24T01:29:02.099Z,2.17
2023-05-24T01:31:30.072Z,2.30
2023-05-24T01:33:58.220Z,2.47
2023-05-24T01:36:26.179Z,2.63
2023-05-24T01:38:54.368Z,2.60
2023-05-24T01:41:34.419Z,2.77
2023-05-24T01:44:09.452Z,3.10
2023-05-24T01:46:39.271Z,2.70
2023-05-24T01:49:27.103Z,2.80
2023-05-24T01:52:04.452Z,2.30
2023-05-24T01:54:35.475Z,2.80
2023-05-24T01:57:07.365Z,2.67
2023-05-24T01:59:37.717Z,2.93
2023-05-24T02:02:06.080Z,2.97
2023-05-24T02:04:34.280Z,2.40
2023-05-24T02:07:02.178Z,2.97
2023-05-24T02:09:30.086Z,2.50
2023-05-24T02:11:57.975Z,2.83
2023-05-24T02:14:26.422Z,2.30
2023-05-24T02:16:59.299Z,2.87
2023-05-24T02:19:27.388Z,2.50
2023-05-24T02:21:55.476Z,2.00
2023-05-24T02:24:23.399Z,2.20
2023-05-24T02:26:51.279Z,2.97
2023-05-24T02:29:19.159Z,2.47
2023-05-24T02:31:47.037Z,2.47
2023-05-24T02:34:16.333Z,2.60
2023-05-24T02:36:45.803Z,2.70
2023-05-24T02:39:13.702Z,2.33
2023-05-24T02:41:42.160Z,2.63
2023-05-24T02:44:10.046Z,2.77
2023-05-24T02:46:38.035Z,2.73
2023-05-24T02:49:06.119Z,2.03
2023-05-24T02:51:37.030Z,2.50
2023-05-24T02:54:05.117Z,2.33
2023-05-24T02:56:33.057Z,2.63
2023-05-24T02:59:00.953Z,2.77
2023-05-24T03:01:29.112Z,2.70
2023-05-24T03:03:57.143Z,2.43
2023-05-24T03:06:25.101Z,2.60
2023-05-24T03:08:54.461Z,2.47
2023-05-24T03:11:22.730Z,2.37
2023-05-24T03:13:50.974Z,2.47
2023-05-24T03:16:19.812Z,2.70
2023-05-24T03:18:50.519Z,2.57
2023-05-24T03:21:20.572Z,2.10
2023-05-24T03:23:48.770Z,2.33
2023-05-24T03:26:18.813Z,3.00
2023-05-24T03:28:47.567Z,2.20
2023-05-24T03:31:16.643Z,2.30
2023-05-24T03:33:44.648Z,2.30
2023-05-24T03:36:12.521Z,2.50
2023-05-24T03:38:40.494Z,2.43
2023-05-24T03:41:08.361Z,2.37
2023-05-24T03:43:37.618Z,2.30
2023-05-24T03:46:05.645Z,2.70
2023-05-24T03:48:33.585Z,2.10
2023-05-24T03:51:01.459Z,2.03
2023-05-24T03:53:29.374Z,2.50
2023-05-24T03:55:57.236Z,2.57
2023-05-24T03:58:25.194Z,2.33
2023-05-24T04:00:54.613Z,2.30
2023-05-24T04:03:22.596Z,2.40
2023-05-24T04:05:50.617Z,2.70
2023-05-24T04:08:18.750Z,2.70
2023-05-24T04:10:46.785Z,2.40
2023-05-24T04:13:14.666Z,2.33
2023-05-24T04:15:43.491Z,2.57
2023-05-24T04:18:13.034Z,2.60
2023-05-24T04:20:41.626Z,2.40
2023-05-24T04:23:09.754Z,2.63
2023-05-24T04:25:37.678Z,2.33
2023-05-24T04:28:06.141Z,2.20
2023-05-24T04:30:34.066Z,2.37
2023-05-24T04:33:02.079Z,2.37
2023-05-24T04:35:31.409Z,2.87
2023-05-24T04:37:59.726Z,2.30
2023-05-24T04:40:27.637Z,2.10
2023-05-24T04:42:55.538Z,2.40
2023-05-24T04:45:23.582Z,2.57
2023-05-24T04:47:51.595Z,2.67
2023-05-24T04:50:19.553Z,2.57
2023-05-24T04:52:48.799Z,2.60
2023-05-24T04:55:16.726Z,2.40
2023-05-24T04:57:44.619Z,2.40
2023-05-24T05:00:13.825Z,2.57
2023-05-24T05:02:41.801Z,2.53
2023-05-24T05:05:10.126Z,2.40
2023-05-24T05:07:38.458Z,2.80
2023-05-24T05:10:09.292Z,2.60
2023-05-24T05:12:37.170Z,2.30
2023-05-24T05:15:05.675Z,2.40
2023-05-24T05:17:33.594Z,2.17
2023-05-24T05:20:01.631Z,2.53
2023-05-24T05:22:31.177Z,2.30
2023-05-24T05:24:59.264Z,2.33
2023-05-24T05:27:28.649Z,2.17
2023-05-24T05:29:56.744Z,2.83
2023-05-24T05:32:24.787Z,2.23
2023-05-24T05:34:52.709Z,2.20
2023-05-24T05:37:20.700Z,2.40
2023-05-24T05:39:48.582Z,2.40
2023-05-24T05:42:16.512Z,2.37
2023-05-24T05:44:46.309Z,2.33
2023-05-24T05:47:14.327Z,2.20
2023-05-24T05:49:42.230Z,2.83
2023-05-24T05:52:10.166Z,2.17
2023-05-24T05:54:38.086Z,2.57
2023-05-24T05:57:08.205Z,2.40
2023-05-24T05:59:36.554Z,2.60
2023-05-24T06:02:07.175Z,2.63
2023-05-24T06:04:35.272Z,2.47
2023-05-24T06:07:03.181Z,2.60
2023-05-24T06:09:31.170Z,3.10
2023-05-24T06:11:59.075Z,2.87
2023-05-24T06:14:26.969Z,2.50
2023-05-24T06:16:56.164Z,2.43
2023-05-24T06:19:27.157Z,2.37
2023-05-24T06:21:55.070Z,2.20
2023-05-24T06:24:23.422Z,2.60
2023-05-24T06:26:53.224Z,2.03
2023-05-24T06:29:22.350Z,2.20
2023-05-24T06:31:50.993Z,2.10
2023-05-24T06:34:21.338Z,2.40
2023-05-24T06:36:52.866Z,2.03
2023-05-24T06:39:20.952Z,2.70
2023-05-24T06:41:51.250Z,2.60
2023-05-24T06:44:19.220Z,2.00
2023-05-24T06:46:47.880Z,1.97
2023-05-24T06:49:15.986Z,2.53
2023-05-24T06:51:44.547Z,2.40
2023-05-24T06:54:13.794Z,2.30
2023-05-24T06:56:41.803Z,2.10
2023-05-24T06:59:09.746Z,2.57
2023-05-24T07:01:39.767Z,2.30
2023-05-24T07:04:07.857Z,2.13
2023-05-24T07:06:36.004Z,2.70
2023-05-24T07:09:04.460Z,2.40
2023-05-24T07:11:33.794Z,2.40
2023-05-24T07:14:01.709Z,2.30
2023-05-24T07:16:29.693Z,2.60
2023-05-24T07:18:58.293Z,2.30
2023-05-24T07:21:26.195Z,2.47
2023-05-24T07:23:54.101Z,2.40
2023-05-24T07:26:22.606Z,2.00
2023-05-24T07:28:52.128Z,2.20
2023-05-24T07:31:20.003Z,2.47
2023-05-24T07:33:47.959Z,2.30
2023-05-24T07:36:16.131Z,1.93
2023-05-24T07:38:44.546Z,2.40
2023-05-24T07:41:15.068Z,2.33
2023-05-24T07:43:43.053Z,2.57
2023-05-24T07:46:12.329Z,2.50
2023-05-24T07:48:40.276Z,2.30
2023-05-24T07:51:08.224Z,2.30
2023-05-24T07:53:37.729Z,2.50
2023-05-24T07:56:07.935Z,2.37
2023-05-24T07:58:35.872Z,2.40
2023-05-24T08:01:04.150Z,2.40
2023-05-24T08:03:33.509Z,2.57
2023-05-24T08:06:01.462Z,2.73
2023-05-24T08:08:29.700Z,2.10
2023-05-24T08:10:57.608Z,2.30
2023-05-24T08:13:25.512Z,2.30
2023-05-24T08:15:53.540Z,2.20
2023-05-24T08:18:21.475Z,2.50
2023-05-24T08:20:50.947Z,2.37
2023-05-24T08:23:18.853Z,2.17
2023-05-24T08:25:46.739Z,2.50
2023-05-24T08:28:14.730Z,2.50
2023-05-24T08:30:43.481Z,2.03
2023-05-24T08:33:11.573Z,2.63
2023-05-24T08:35:39.520Z,2.50
2023-05-24T08:38:09.772Z,2.37
2023-05-24T08:40:37.716Z,2.10
2023-05-24T08:43:11.825Z,2.30
2023-05-24T08:45:40.990Z,2.17
2023-05-24T08:48:10.144Z,2.27
2023-05-24T08:50:38.334Z,2.50
2023-05-24T08:53:09.911Z,2.60
2023-05-24T08:55:39.095Z,2.10
2023-05-24T08:58:07.849Z,2.30
2023-05-24T09:00:35.801Z,2.40
2023-05-24T09:03:06.080Z,2.20
2023-05-24T09:05:34.904Z,2.20
2023-05-24T09:08:03.853Z,2.40
2023-05-24T09:10:49.197Z,2.10
2023-05-24T09:13:23.824Z,2.23
2023-05-24T09:15:52.173Z,2.53
2023-05-24T09:18:20.295Z,2.20
2023-05-24T09:20:48.348Z,2.63
2023-05-24T09:23:17.597Z,2.20
2023-05-24T09:25:47.689Z,2.20
2023-05-24T09:28:17.593Z,2.50
2023-05-24T09:30:46.751Z,2.10
2023-05-24T09:33:14.694Z,2.33
2023-05-24T09:35:44.282Z,2.60
2023-05-24T09:38:19.370Z,1.83
2023-05-24T09:40:48.616Z,2.10
2023-05-24T09:43:16.521Z,2.37
2023-05-24T09:45:46.678Z,2.13
2023-05-24T09:48:16.644Z,1.87
2023-05-24T09:50:45.751Z,2.13
2023-05-24T09:53:13.995Z,2.23
2023-05-24T09:55:42.033Z,2.57
2023-05-24T09:58:12.803Z,2.50
2023-05-24T10:00:42.918Z,2.00
2023-05-24T10:03:13.341Z,2.47
2023-05-24T10:05:45.720Z,2.10
2023-05-24T10:08:14.393Z,2.00
2023-05-24T10:10:43.666Z,2.50
2023-05-24T10:13:15.875Z,2.10
2023-05-24T10:15:44.768Z,2.23
2023-05-24T10:18:14.190Z,2.30
2023-05-24T10:20:43.049Z,2.10
2023-05-24T10:23:11.970Z,2.27
2023-05-24T10:25:42.958Z,2.13
2023-05-24T10:28:14.906Z,2.30
2023-05-24T10:30:49.551Z,2.23
2023-05-24T10:33:19.278Z,2.30
2023-05-24T10:35:47.532Z,2.40
2023-05-24T10:38:15.679Z,2.00
2023-05-24T10:40:44.275Z,2.27
2023-05-24T10:43:12.271Z,1.90
2023-05-24T10:45:42.207Z,1.80
2023-05-24T10:48:25.676Z,2.40
2023-05-24T10:50:53.634Z,2.03
2023-05-24T10:53:24.477Z,2.40
2023-05-24T10:55:54.153Z,1.90
2023-05-24T10:58:24.409Z,2.00
2023-05-24T11:00:54.272Z,2.20
2023-05-24T11:03:24.857Z,2.60
2023-05-24T11:05:55.390Z,2.00
2023-05-24T11:08:30.996Z,1.80
2023-05-24T11:11:23.463Z,2.03
2023-05-24T11:13:57.649Z,2.20
2023-05-24T11:16:39.531Z,2.27
2023-05-24T11:19:17.998Z,1.83
2023-05-24T11:21:47.310Z,2.17
2023-05-24T11:24:17.502Z,1.97
2023-05-24T11:26:45.979Z,2.10
2023-05-24T11:29:20.850Z,2.10
2023-05-24T11:31:51.160Z,2.00
2023-05-24T11:34:19.198Z,2.13
2023-05-24T11:36:48.116Z,2.20
2023-05-24T11:39:16.103Z,2.03
2023-05-24T11:41:44.293Z,2.60
2023-05-24T11:44:13.466Z,2.10
2023-05-24T11:46:44.123Z,2.30
2023-05-24T11:49:16.490Z,1.83
2023-05-24T11:51:44.946Z,1.90
2023-05-24T11:54:12.882Z,1.90
2023-05-24T11:56:41.200Z,1.93
2023-05-24T11:59:16.698Z,2.03
2023-05-24T12:01:45.037Z,2.17
2023-05-24T12:04:13.430Z,1.87
2023-05-24T12:06:44.394Z,2.30
2023-05-24T12:09:14.502Z,2.33
2023-05-24T12:11:44.748Z,2.40
2023-05-24T12:14:14.758Z,1.80
2023-05-24T12:16:44.229Z,2.13
2023-05-24T12:19:31.450Z,2.07
2023-05-24T12:22:05.778Z,2.60
2023-05-24T12:24:34.013Z,2.87
2023-05-24T12:27:03.585Z,2.80
2023-05-24T12:29:35.376Z,2.03
2023-05-24T12:32:03.866Z,2.00
2023-05-24T12:34:31.755Z,1.80
2023-05-24T12:37:03.532Z,2.47
2023-05-24T12:39:34.154Z,1.93
2023-05-24T12:42:02.889Z,2.37
2023-05-24T12:44:33.586Z,2.30
2023-05-24T12:47:03.785Z,2.10
2023-05-24T12:49:32.415Z,2.17
2023-05-24T12:52:02.780Z,2.30
2023-05-24T12:54:30.788Z,2.00
2023-05-24T12:57:02.665Z,2.07
2023-05-24T12:59:30.983Z,2.17
2023-05-24T13:01:58.988Z,2.30
2023-05-24T13:04:27.441Z,2.00
2023-05-24T13:06:55.962Z,2.20
2023-05-24T13:09:26.223Z,2.40
2023-05-24T13:11:55.128Z,2.50
2023-05-24T13:14:23.120Z,2.40
2023-05-24T13:16:51.236Z,2.30
2023-05-24T13:19:19.424Z,2.20
2023-05-24T13:21:47.422Z,2.40
2023-05-24T13:24:17.230Z,2.03
2023-05-24T13:26:46.912Z,2.13
2023-05-24T13:31:45.889Z,2.20
2023-05-24T13:34:14.533Z,2.03
2023-05-24T13:36:43.839Z,2.00
2023-05-24T13:39:16.294Z,1.90
2023-05-24T13:41:46.384Z,2.20
2023-05-24T13:44:15.188Z,2.13
2023-05-24T13:46:43.781Z,1.73
2023-05-24T13:49:12.787Z,2.00
2023-05-24T13:51:41.135Z,2.27
2023-05-24T13:54:09.210Z,1.80
2023-05-24T13:56:37.330Z,2.30
2023-05-24T13:59:07.661Z,2.00
2023-05-24T14:01:37.657Z,2.00
2023-05-24T14:04:06.475Z,2.10
2023-05-24T14:06:34.977Z,2.43
2023-05-24T14:09:02.884Z,2.20
2023-05-24T14:11:31.900Z,2.40
2023-05-24T14:16:32.303Z,2.30
2023-05-24T14:19:00.330Z,2.10
2023-05-24T14:21:28.314Z,1.87
2023-05-24T14:23:56.238Z,1.87
2023-05-24T14:26:24.447Z,2.13
2023-05-24T14:28:56.111Z,2.00
2023-05-24T14:31:25.199Z,2.10
2023-05-24T14:33:54.569Z,2.33
2023-05-24T14:36:22.456Z,1.80
2023-05-24T14:38:50.661Z,1.90
2023-05-24T14:41:18.675Z,2.20
2023-05-24T14:43:46.571Z,2.23
2023-05-24T14:46:14.561Z,2.37
2023-05-24T14:48:42.583Z,2.00
2023-05-24T14:51:11.888Z,2.10
2023-05-24T14:53:39.816Z,2.10
2023-05-24T14:56:09.804Z,2.27
2023-05-24T14:58:37.730Z,1.90
2023-05-24T15:01:09.606Z,1.83
2023-05-24T15:03:37.614Z,1.90
2023-05-24T15:06:06.295Z,1.90
2023-05-24T15:08:36.140Z,2.00
2023-05-24T15:11:05.086Z,1.57
2023-05-24T15:13:33.626Z,2.33
2023-05-24T15:16:01.725Z,2.07
2023-05-24T15:18:32.316Z,1.93
2023-05-24T15:21:01.111Z,2.30
2023-05-24T15:23:29.219Z,1.87
2023-05-24T15:25:58.458Z,1.70
2023-05-24T15:28:26.743Z,2.00
2023-05-24T15:30:55.196Z,2.03
2023-05-24T15:33:23.232Z,2.17
2023-05-24T15:35:51.251Z,2.10
2023-05-24T15:38:19.322Z,1.90
2023-05-24T15:40:47.370Z,1.60
2023-05-24T15:43:18.946Z,2.40
2023-05-24T15:45:47.563Z,2.13
2023-05-24T15:48:15.698Z,2.03
2023-05-24T15:51:13.882Z,1.77
2023-05-24T15:53:32.465Z,2.10
2023-05-24T15:56:00.415Z,1.70
2023-05-24T15:58:29.659Z,2.17
2023-05-24T16:00:57.607Z,1.97
2023-05-24T16:03:25.982Z,2.37
2023-05-24T16:05:54.135Z,1.90
2023-05-24T16:08:27.444Z,2.67
2023-05-24T16:10:55.468Z,1.73
2023-05-24T16:13:23.719Z,2.23
2023-05-24T16:15:53.097Z,1.90
2023-05-24T16:18:22.474Z,2.03
2023-05-24T16:20:51.708Z,2.40
2023-05-24T16:23:23.297Z,1.53
2023-05-24T16:25:51.451Z,1.77
2023-05-24T16:28:23.738Z,1.83
2023-05-24T16:30:56.029Z,2.10
2023-05-24T16:33:24.370Z,1.63
2023-05-24T16:35:56.692Z,1.93
2023-05-24T16:38:25.476Z,1.77
2023-05-24T16:40:54.465Z,2.20
2023-05-24T16:43:22.730Z,1.97
2023-05-24T16:45:51.378Z,1.70
2023-05-24T16:48:23.176Z,2.10
2023-05-24T16:50:53.911Z,1.70
2023-05-24T16:53:23.045Z,1.60
2023-05-24T16:55:53.788Z,1.90
2023-05-24T16:58:21.788Z,1.40
2023-05-24T17:00:50.127Z,1.47
2023-05-24T17:03:18.219Z,1.90
2023-05-24T17:05:47.488Z,1.60
2023-05-24T17:08:15.475Z,1.97
2023-05-24T17:10:43.618Z,1.27
2023-05-24T17:13:11.651Z,1.80
2023-05-24T17:15:39.596Z,2.10
2023-05-24T17:18:08.085Z,1.63
2023-05-24T17:20:36.013Z,2.30
2023-05-24T17:23:05.318Z,1.80
2023-05-24T17:25:33.200Z,1.83
2023-05-24T17:28:01.191Z,2.60
2023-05-24T17:30:30.333Z,1.60
2023-05-24T17:32:58.280Z,1.57
2023-05-24T17:35:26.552Z,2.00
2023-05-24T17:37:54.454Z,1.87
2023-05-24T17:40:23.767Z,1.87
2023-05-24T17:42:51.659Z,2.40
2023-05-24T17:45:19.555Z,1.83
2023-05-24T17:47:47.519Z,1.80
2023-05-24T17:50:15.477Z,1.90
2023-05-24T17:52:43.390Z,1.47
2023-05-24T17:55:11.644Z,1.30
2023-05-24T17:57:40.895Z,1.47
2023-05-24T18:00:09.864Z,1.50
2023-05-24T18:02:37.826Z,1.73
2023-05-24T18:05:06.308Z,1.87
2023-05-24T18:07:34.284Z,1.60
2023-05-24T18:10:02.303Z,1.67
2023-05-24T18:12:30.566Z,1.53
2023-05-24T18:15:00.165Z,1.50
2023-05-24T18:17:28.238Z,1.60
2023-05-24T18:19:57.415Z,1.50
2023-05-24T18:22:25.360Z,1.53
2023-05-24T18:24:53.314Z,1.90
2023-05-24T18:27:21.179Z,1.50
2023-05-24T18:29:49.070Z,1.60
2023-05-24T18:32:18.414Z,1.70
2023-05-24T18:34:46.671Z,1.60
2023-05-24T18:37:14.704Z,1.73
2023-05-24T18:39:42.659Z,1.30
2023-05-24T18:42:12.560Z,1.63
2023-05-24T18:44:40.489Z,1.30
2023-05-24T18:47:08.619Z,1.37
2023-05-24T18:49:37.998Z,1.43
2023-05-24T18:52:06.243Z,1.53
2023-05-24T18:54:34.173Z,1.70
2023-05-24T18:57:04.479Z,1.50
2023-05-24T18:59:34.376Z,1.60
2023-05-24T19:02:02.433Z,1.57
2023-05-24T19:04:30.708Z,1.60
2023-05-24T19:07:00.061Z,1.30
2023-05-24T19:09:28.102Z,1.57
2023-05-24T19:11:59.018Z,1.50
2023-05-24T19:14:27.381Z,2.10
2023-05-24T19:16:55.630Z,1.80
2023-05-24T19:19:23.663Z,1.40
2023-05-24T19:21:51.558Z,1.77
2023-05-24T19:24:21.316Z,1.40
2023-05-24T19:26:49.187Z,1.67
2023-05-24T19:29:17.539Z,1.50
2023-05-24T19:31:46.713Z,1.37
2023-05-24T19:34:14.640Z,1.50
2023-05-24T19:36:42.587Z,1.30
2023-05-24T19:39:10.503Z,1.63
2023-05-24T19:41:39.778Z,1.60
2023-05-24T19:44:07.717Z,1.50
2023-05-24T19:46:36.997Z,1.70
2023-05-24T19:49:05.058Z,1.37
2023-05-24T19:51:33.065Z,2.13
2023-05-24T19:54:01.014Z,1.60
2023-05-24T19:56:28.978Z,1.47
2023-05-24T19:58:58.253Z,1.73
2023-05-24T20:01:26.261Z,1.70
2023-05-24T20:03:54.556Z,1.50
2023-05-24T20:06:22.544Z,1.43
2023-05-24T20:08:50.498Z,1.60
2023-05-24T20:11:18.464Z,1.80
2023-05-24T20:13:46.407Z,1.40
2023-05-24T20:16:15.908Z,1.10
2023-05-24T20:18:43.940Z,1.70
2023-05-24T20:21:12.194Z,1.63
2023-05-24T20:23:40.288Z,1.20
2023-05-24T20:26:08.289Z,1.23
2023-05-24T20:28:36.223Z,1.40
2023-05-24T20:31:04.229Z,1.70
2023-05-24T20:33:37.982Z,1.50
2023-05-24T20:36:06.657Z,1.80
2023-05-24T20:38:35.527Z,1.60
2023-05-24T20:41:04.284Z,1.70
2023-05-24T20:43:32.201Z,1.17
2023-05-24T20:46:00.236Z,1.47
2023-05-24T20:48:28.240Z,1.40
2023-05-24T20:50:58.101Z,1.57
2023-05-24T20:53:26.327Z,1.70
2023-05-24T20:55:56.482Z,1.80
2023-05-24T20:58:24.438Z,1.80
2023-05-24T21:00:52.383Z,1.50
2023-05-24T21:03:20.636Z,1.83
2023-05-24T21:05:48.651Z,1.37
2023-05-24T21:08:18.062Z,1.60
2023-05-24T21:10:46.185Z,1.80
2023-05-24T21:13:14.087Z,1.77
2023-05-24T21:15:44.654Z,1.70
2023-05-24T21:18:13.636Z,1.87
2023-05-24T21:20:41.581Z,1.40
2023-05-24T21:23:10.424Z,1.90
2023-05-24T21:25:39.781Z,1.60
2023-05-24T21:28:08.258Z,1.90
2023-05-24T21:30:36.195Z,1.53
2023-05-24T21:33:04.201Z,1.70
2023-05-24T21:35:32.614Z,1.50
2023-05-24T21:38:00.507Z,1.70
2023-05-24T21:40:28.371Z,1.90
2023-05-24T21:42:57.569Z,1.67
2023-05-24T21:45:25.506Z,2.03
2023-05-24T21:47:53.468Z,1.67
2023-05-24T21:50:21.450Z,2.00
2023-05-24T21:52:49.358Z,1.50
2023-05-24T21:55:17.318Z,1.90
2023-05-24T21:57:45.289Z,1.90
2023-05-24T22:00:16.821Z,1.73
2023-05-24T22:02:44.805Z,1.80
2023-05-24T22:05:13.158Z,1.47
2023-05-24T22:07:41.230Z,1.50
2023-05-24T22:10:10.412Z,1.83
2023-05-24T22:12:38.486Z,1.83
2023-05-24T22:15:07.477Z,1.57
2023-05-24T22:17:36.992Z,1.47
2023-05-24T22:20:06.115Z,1.57
2023-05-24T22:22:34.146Z,1.53
2023-05-24T22:25:02.374Z,1.87
2023-05-24T22:27:30.664Z,1.53
2023-05-24T22:29:58.879Z,1.90
2023-05-24T22:32:26.802Z,1.70
2023-05-24T22:34:56.097Z,1.60
2023-05-24T22:37:23.972Z,1.87
2023-05-24T22:39:51.905Z,1.50
2023-05-24T22:42:20.124Z,1.67
2023-05-24T22:44:48.044Z,1.40
2023-05-24T22:47:16.934Z,1.63
2023-05-24T22:49:44.829Z,1.60
2023-05-24T22:52:17.272Z,1.80
2023-05-24T22:54:45.374Z,1.87
2023-05-24T22:57:13.338Z,1.50
2023-05-24T22:59:42.672Z,1.77
2023-05-24T23:02:10.681Z,1.70
2023-05-24T23:04:38.623Z,1.73
2023-05-24T23:07:07.071Z,1.40
2023-05-24T23:09:36.608Z,1.70
2023-05-24T23:12:08.274Z,1.67
2023-05-24T23:14:38.793Z,1.53
2023-05-24T23:17:07.279Z,1.80
2023-05-24T23:19:42.126Z,1.40
2023-05-24T23:22:11.871Z,1.97
2023-05-24T23:24:43.751Z,1.60
2023-05-24T23:27:12.039Z,1.83
2023-05-24T23:29:39.955Z,2.10
2023-05-24T23:32:08.972Z,1.80
2023-05-24T23:34:37.443Z,2.37
2023-05-24T23:37:06.405Z,1.53
2023-05-24T23:39:34.580Z,1.40
2023-05-24T23:42:03.984Z,1.70
2023-05-24T23:44:32.220Z,1.70
2023-05-24T23:47:00.171Z,1.77
2023-05-24T23:49:28.107Z,1.93
2023-05-24T23:51:56.006Z,1.60
2023-05-24T23:54:23.902Z,1.70
2023-05-24T23:56:52.088Z,1.63
2023-05-24T23:59:21.955Z,1.60
